Time;durP1;ratioP1;P1;durP2;ratioP2;P2;SDS_P1;SDS_P2;PMS_P1;PMS_P2;Temp;Humidity;BMP_temperature;BMP_pressure;BME280_temperature;BME280_humidity;BME280_pressure;Samples;Min_cycle;Max_cycle;Signal;HPM_P1;HPM_P2
2023/05/16 00:01:47;;;;;;;3.30;2.58;;;10.90;87.70;;;;;;5016258;28;20065;-62
2023/05/16 00:04:12;;;;;;;3.05;2.75;;;10.80;87.80;;;;;;5016753;28;20049;-62
2023/05/16 00:06:38;;;;;;;3.83;3.42;;;10.80;88.00;;;;;;5012970;28;20068;-62
2023/05/16 00:09:03;;;;;;;3.45;3.10;;;10.80;88.30;;;;;;5011081;28;20041;-61
2023/05/16 00:11:29;;;;;;;4.20;3.20;;;10.80;88.60;;;;;;5013116;28;20033;-62
2023/05/16 00:13:55;;;;;;;3.60;3.30;;;10.80;88.60;;;;;;5010306;28;20037;-62
2023/05/16 00:16:21;;;;;;;3.85;3.55;;;10.80;88.60;;;;;;5010737;28;20041;-61
2023/05/16 00:18:47;;;;;;;5.38;3.80;;;10.80;88.50;;;;;;5009744;28;20042;-62
2023/05/16 00:21:12;;;;;;;4.00;3.67;;;10.80;88.50;;;;;;5021980;28;20047;-61
2023/05/16 00:23:38;;;;;;;4.15;3.75;;;10.80;88.60;;;;;;5036427;28;20025;-61
2023/05/16 00:26:04;;;;;;;4.10;3.67;;;10.80;89.50;;;;;;5035952;28;20075;-61
2023/05/16 00:28:30;;;;;;;3.85;3.55;;;10.80;88.60;;;;;;5035740;28;20094;-61
2023/05/16 00:30:55;;;;;;;4.15;3.75;;;10.80;88.60;;;;;;5033794;28;20053;-61
2023/05/16 00:33:21;;;;;;;4.32;3.65;;;10.80;88.40;;;;;;5036623;28;20041;-61
2023/05/16 00:35:46;;;;;;;4.30;3.90;;;10.80;88.30;;;;;;5036186;28;20041;-61
2023/05/16 00:38:12;;;;;;;4.43;4.00;;;10.80;88.10;;;;;;5039318;28;20497;-61
2023/05/16 00:40:38;;;;;;;4.47;4.07;;;10.80;88.10;;;;;;5038826;28;20042;-62
2023/05/16 00:43:03;;;;;;;5.38;4.13;;;10.70;88.10;;;;;;5042592;28;20033;-62
2023/05/16 00:45:29;;;;;;;5.20;4.70;;;10.80;88.30;;;;;;5042156;28;20060;-63
2023/05/16 00:47:55;;;;;;;4.35;3.95;;;10.70;88.30;;;;;;5041271;28;20048;-62
2023/05/16 00:50:21;;;;;;;4.35;3.95;;;10.70;88.30;;;;;;5034930;28;20131;-62
2023/05/16 00:52:47;;;;;;;4.50;4.10;;;10.70;88.30;;;;;;5036039;28;20033;-62
2023/05/16 00:55:13;;;;;;;4.32;3.78;;;10.70;88.50;;;;;;5036111;28;20435;-61
2023/05/16 00:57:39;;;;;;;4.47;4.10;;;10.70;88.50;;;;;;5035625;28;20033;-61
2023/05/16 01:00:06;;;;;;;5.78;4.50;;;10.70;88.50;;;;;;5035679;28;20032;-61
2023/05/16 01:02:33;;;;;;;4.53;4.07;;;10.70;88.40;;;;;;5038360;28;20029;-62
2023/05/16 01:04:59;;;;;;;4.57;4.20;;;10.70;88.30;;;;;;5036310;28;20080;-61
2023/05/16 01:07:25;;;;;;;4.72;4.32;;;10.60;88.50;;;;;;5036708;28;20041;-62
2023/05/16 01:09:51;;;;;;;4.63;4.22;;;10.60;88.50;;;;;;5036980;28;20087;-61
2023/05/16 01:12:26;;;;;;;5.13;4.20;;;10.60;88.30;;;;;;5040684;28;20025;-62
2023/05/16 01:15:33;;;;;;;5.13;4.50;;;10.60;88.50;;;;;;5034979;28;20041;-62
2023/05/16 01:18:14;;;;;;;6.35;3.92;;;10.60;88.70;;;;;;5015141;28;20797;-61
2023/05/16 01:20:47;;;;;;;4.35;3.95;;;10.50;88.70;;;;;;5035262;28;20083;-63
2023/05/16 01:23:21;;;;;;;4.88;4.13;;;10.50;89.00;;;;;;5037147;28;20026;-61
2023/05/16 01:26:11;;;;;;;5.00;4.38;;;10.50;89.20;;;;;;5035489;28;20029;-61
2023/05/16 01:28:38;;;;;;;5.10;4.32;;;10.60;89.30;;;;;;5036039;28;20052;-62
2023/05/16 01:31:04;;;;;;;4.22;3.83;;;10.50;89.00;;;;;;5032145;28;20344;-60
2023/05/16 01:33:29;;;;;;;4.70;4.22;;;10.50;88.80;;;;;;5036557;28;20049;-62
2023/05/16 01:36:06;;;;;;;5.05;4.57;;;10.50;88.80;;;;;;5036141;28;20060;-61
2023/05/16 01:38:51;;;;;;;4.25;3.88;;;10.50;89.10;;;;;;5033662;28;20044;-62
2023/05/16 01:41:26;;;;;;;4.38;3.97;;;10.50;89.10;;;;;;5036268;28;20819;-61
2023/05/16 01:43:56;;;;;;;;;;;10.60;88.90;;;;;;5035720;28;20396;-61
2023/05/16 01:46:30;;;;;;;4.28;3.88;;;10.60;89.20;;;;;;5035585;28;20379;-62
2023/05/16 01:49:15;;;;;;;5.28;4.50;;;10.60;88.50;;;;;;5034243;28;20045;-62
2023/05/16 01:51:41;;;;;;;;;;;10.50;88.30;;;;;;5034590;28;20552;-60
2023/05/16 01:54:12;;;;;;;4.53;4.05;;;10.50;88.90;;;;;;5035187;28;19917;-61
2023/05/16 01:56:39;;;;;;;5.25;4.70;;;10.50;88.50;;;;;;5033135;28;20029;-61
2023/05/16 01:59:05;;;;;;;6.32;4.85;;;10.40;88.50;;;;;;5032655;28;20080;-61
2023/05/16 02:01:31;;;;;;;5.00;4.60;;;10.40;88.80;;;;;;5031283;28;20036;-61
2023/05/16 02:03:57;;;;;;;5.28;4.50;;;10.40;88.90;;;;;;5031434;28;20077;-61
2023/05/16 02:06:24;;;;;;;5.50;4.85;;;10.30;89.00;;;;;;5031169;28;20060;-61
2023/05/16 02:08:50;;;;;;;5.85;4.93;;;10.30;89.10;;;;;;5033781;28;20492;-62
2023/05/16 02:11:16;;;;;;;6.38;5.07;;;10.30;89.50;;;;;;5033347;28;20052;-62
2023/05/16 02:13:41;;;;;;;5.20;4.70;;;10.20;89.30;;;;;;5030798;28;20044;-61
2023/05/16 02:16:09;;;;;;;5.00;4.50;;;10.20;89.70;;;;;;5030499;28;20037;-62
2023/05/16 02:18:35;;;;;;;5.60;4.82;;;10.20;90.30;;;;;;5032206;28;20037;-61
2023/05/16 02:21:01;;;;;;;6.05;5.10;;;10.20;89.90;;;;;;5031733;28;20576;-61
2023/05/16 02:23:26;;;;;;;6.80;5.35;;;10.20;89.90;;;;;;5032227;28;20041;-62
2023/05/16 02:25:52;;;;;;;5.50;5.00;;;10.20;90.00;;;;;;5034046;28;20037;-62
2023/05/16 02:28:17;;;;;;;7.43;5.30;;;10.10;90.00;;;;;;5035757;28;20548;-62
2023/05/16 02:30:43;;;;;;;5.95;5.15;;;10.10;90.10;;;;;;5035367;28;20051;-62
2023/05/16 02:33:09;;;;;;;8.15;5.43;;;10.10;90.20;;;;;;5030916;28;20037;-61
2023/05/16 02:35:35;;;;;;;6.07;5.47;;;10.00;90.30;;;;;;5033804;28;20033;-62
2023/05/16 02:38:01;;;;;;;5.43;4.93;;;10.00;90.40;;;;;;5032338;28;20393;-62
2023/05/16 02:40:26;;;;;;;6.32;5.20;;;10.00;90.40;;;;;;5033124;28;20040;-62
2023/05/16 02:42:52;;;;;;;5.72;5.07;;;10.00;90.50;;;;;;5029422;28;20432;-62
2023/05/16 02:45:17;;;;;;;5.60;5.00;;;10.10;90.50;;;;;;5032163;28;20091;-61
2023/05/16 02:47:43;;;;;;;8.95;4.90;;;10.10;90.40;;;;;;5031027;28;20044;-61
2023/05/16 02:50:09;;;;;;;5.45;4.90;;;10.10;90.40;;;;;;5033246;28;20030;-61
2023/05/16 02:52:34;;;;;;;5.63;5.05;;;10.20;90.40;;;;;;5031543;28;20063;-61
2023/05/16 02:55:00;;;;;;;7.05;5.15;;;10.20;90.20;;;;;;5034951;28;20037;-62
2023/05/16 02:57:25;;;;;;;5.47;4.53;;;10.20;90.00;;;;;;5034560;28;20036;-62
2023/05/16 02:59:51;;;;;;;5.72;5.20;;;10.20;89.80;;;;;;5034744;28;20048;-62
2023/05/16 03:02:16;;;;;;;5.82;5.22;;;10.20;89.70;;;;;;5034868;28;20199;-62
2023/05/16 03:04:42;;;;;;;6.75;5.68;;;10.20;89.70;;;;;;5031788;28;20124;-62
2023/05/16 03:07:07;;;;;;;8.00;6.53;;;10.10;89.70;;;;;;5034402;28;20106;-61
2023/05/16 03:09:33;;;;;;;6.70;6.05;;;10.10;89.70;;;;;;5035140;28;20460;-61
2023/05/16 03:11:58;;;;;;;6.78;6.07;;;10.10;89.70;;;;;;5034274;28;20050;-62
2023/05/16 03:14:24;;;;;;;7.05;6.35;;;10.10;89.80;;;;;;5036496;28;20427;-62
2023/05/16 03:16:50;;;;;;;8.25;6.55;;;10.10;89.90;;;;;;5033192;28;20471;-62
2023/05/16 03:19:16;;;;;;;8.70;7.15;;;10.00;89.80;;;;;;5031907;28;20042;-62
2023/05/16 03:21:41;;;;;;;7.85;7.05;;;10.00;89.80;;;;;;5032415;28;21716;-62
2023/05/16 03:24:07;;;;;;;10.73;7.20;;;10.00;89.90;;;;;;5031763;28;20032;-63
2023/05/16 03:26:33;;;;;;;9.18;7.30;;;10.00;90.00;;;;;;5031534;28;20041;-61
2023/05/16 03:28:58;;;;;;;8.23;6.72;;;9.90;90.00;;;;;;5033985;28;20178;-62
2023/05/16 03:31:24;;;;;;;7.93;6.55;;;10.00;90.00;;;;;;5032047;28;20393;-61
2023/05/16 03:33:50;;;;;;;6.85;6.15;;;10.00;90.00;;;;;;5031252;28;20086;-62
2023/05/16 03:36:15;;;;;;;6.75;6.00;;;10.00;90.10;;;;;;5029266;28;20033;-61
2023/05/16 03:38:41;;;;;;;7.25;6.55;;;10.00;90.00;;;;;;5030227;28;20036;-62
2023/05/16 03:41:07;;;;;;;7.13;6.40;;;10.00;90.00;;;;;;5027759;28;20385;-61
2023/05/16 03:43:32;;;;;;;15.13;10.88;;;10.00;89.90;;;;;;5032518;28;20086;-62
2023/05/16 03:46:00;;;;;;;31.73;20.55;;;10.00;89.80;;;;;;5030654;28;20033;-61
2023/05/16 03:48:26;;;;;;;27.27;18.63;;;10.00;89.60;;;;;;5030458;28;20041;-62
2023/05/16 03:50:51;;;;;;;27.50;17.60;;;10.00;89.30;;;;;;5035438;28;20030;-63
2023/05/16 03:53:17;;;;;;;17.88;12.73;;;10.00;89.40;;;;;;5035109;28;20100;-61
2023/05/16 03:55:42;;;;;;;16.02;12.32;;;10.10;89.50;;;;;;5035504;28;20036;-62
2023/05/16 03:58:08;;;;;;;13.05;9.93;;;10.00;89.50;;;;;;5036976;28;20034;-62
2023/05/16 04:00:35;;;;;;;9.35;7.97;;;10.00;89.30;;;;;;5036302;28;20029;-62
2023/05/16 04:03:01;;;;;;;9.10;7.22;;;10.00;89.20;;;;;;5034684;28;20072;-61
2023/05/16 04:05:27;;;;;;;9.70;7.13;;;10.00;89.00;;;;;;5028488;28;20123;-60
2023/05/16 04:07:52;;;;;;;8.25;6.80;;;10.00;89.10;;;;;;5029216;28;20132;-61
2023/05/16 04:10:18;;;;;;;7.57;6.22;;;10.00;89.30;;;;;;5032963;28;20328;-61
2023/05/16 04:12:43;;;;;;;7.70;6.82;;;10.00;89.60;;;;;;5030008;28;20034;-60
2023/05/16 04:15:09;;;;;;;7.30;6.60;;;10.00;89.90;;;;;;5031225;28;20041;-62
2023/05/16 04:17:35;;;;;;;7.40;6.60;;;10.00;90.40;;;;;;5030306;28;20030;-61
2023/05/16 04:20:03;;;;;;;7.68;6.63;;;10.00;90.00;;;;;;5028847;28;20041;-62
2023/05/16 04:22:28;;;;;;;8.60;6.70;;;10.00;90.10;;;;;;5026845;28;20034;-62
2023/05/16 04:24:54;;;;;;;12.77;6.82;;;10.00;90.10;;;;;;5036102;28;20446;-61
2023/05/16 04:27:19;;;;;;;7.50;6.72;;;10.00;90.20;;;;;;5033811;28;20044;-62
2023/05/16 04:29:45;;;;;;;7.47;6.22;;;10.00;90.20;;;;;;5032366;28;20040;-61
2023/05/16 04:32:11;;;;;;;9.52;8.48;;;10.10;90.30;;;;;;5033533;28;20047;-61
2023/05/16 04:34:36;;;;;;;12.75;10.68;;;10.10;90.40;;;;;;5036059;28;20460;-62
2023/05/16 04:37:06;;;;;;;11.98;10.77;;;10.10;90.40;;;;;;5036173;28;20029;-62
2023/05/16 04:39:32;;;;;;;12.45;9.85;;;10.10;90.50;;;;;;5033337;28;20069;-61
2023/05/16 04:41:58;;;;;;;10.95;8.65;;;10.20;90.50;;;;;;5034635;28;20493;-60
2023/05/16 04:44:27;;;;;;;14.70;12.18;;;10.30;90.50;;;;;;5035453;28;20048;-62
2023/05/16 04:46:53;;;;;;;12.10;10.02;;;10.30;90.60;;;;;;5034063;28;20113;-61
2023/05/16 04:49:19;;;;;;;15.07;9.35;;;10.30;90.50;;;;;;5035200;28;20120;-61
2023/05/16 04:51:46;;;;;;;9.82;8.35;;;10.30;90.40;;;;;;5033459;28;20953;-62
2023/05/16 04:54:12;;;;;;;9.93;8.15;;;10.30;90.40;;;;;;5035613;28;20136;-61
2023/05/16 04:56:37;;;;;;;12.07;8.35;;;10.30;90.40;;;;;;5034215;28;20163;-61
2023/05/16 04:59:03;;;;;;;8.55;7.65;;;10.30;90.40;;;;;;5034480;28;20064;-61
2023/05/16 05:01:29;;;;;;;9.50;7.88;;;10.30;90.50;;;;;;5035255;28;20035;-62
2023/05/16 05:03:54;;;;;;;10.35;8.30;;;10.30;90.50;;;;;;5033273;28;20248;-61
2023/05/16 05:06:20;;;;;;;14.90;10.68;;;10.40;90.60;;;;;;5036552;28;20049;-62
2023/05/16 05:08:46;;;;;;;12.88;10.90;;;10.40;90.70;;;;;;5040479;28;20118;-61
2023/05/16 05:11:11;;;;;;;11.35;9.40;;;10.50;90.80;;;;;;5037793;28;20022;-62
2023/05/16 05:13:37;;;;;;;10.25;8.48;;;10.50;90.80;;;;;;5038295;28;20496;-62
2023/05/16 05:16:03;;;;;;;9.73;8.20;;;10.60;91.20;;;;;;5038919;28;20075;-62
2023/05/16 05:18:29;;;;;;;11.80;8.70;;;10.60;90.80;;;;;;5036885;28;20462;-61
2023/05/16 05:20:55;;;;;;;11.23;8.38;;;10.60;90.80;;;;;;5037875;28;20041;-61
2023/05/16 05:23:20;;;;;;;10.10;8.63;;;10.70;90.80;;;;;;5038207;28;20048;-61
2023/05/16 05:25:46;;;;;;;11.77;8.48;;;10.70;90.80;;;;;;5039386;28;20032;-62
2023/05/16 05:28:12;;;;;;;11.30;8.48;;;10.80;90.80;;;;;;5037719;28;20040;-62
2023/05/16 05:30:37;;;;;;;10.02;8.65;;;10.80;90.80;;;;;;5037157;28;20040;-61
2023/05/16 05:33:03;;;;;;;10.88;8.90;;;10.90;90.80;;;;;;5039583;28;20041;-61
2023/05/16 05:35:29;;;;;;;11.55;9.25;;;10.90;90.80;;;;;;5038143;28;20524;-62
2023/05/16 05:37:54;;;;;;;9.50;8.18;;;11.00;90.80;;;;;;5039419;28;20037;-61
2023/05/16 05:40:20;;;;;;;10.35;9.05;;;11.10;90.80;;;;;;5038000;28;20037;-61
2023/05/16 05:42:45;;;;;;;12.75;8.93;;;11.10;90.60;;;;;;5037216;28;20033;-61
2023/05/16 05:45:11;;;;;;;15.60;9.15;;;11.10;90.60;;;;;;5037335;28;20033;-62
2023/05/16 05:47:37;;;;;;;11.63;9.35;;;11.20;90.60;;;;;;5037434;28;20501;-62
2023/05/16 05:50:03;;;;;;;12.63;9.57;;;11.20;90.60;;;;;;5037044;28;20033;-62
2023/05/16 05:52:29;;;;;;;12.52;10.48;;;11.20;90.60;;;;;;5036738;28;20445;-61
2023/05/16 05:54:54;;;;;;;13.75;10.65;;;11.30;90.80;;;;;;5038879;28;20496;-61
2023/05/16 05:57:20;;;;;;;14.23;10.82;;;11.30;90.80;;;;;;5038686;28;20554;-61
2023/05/16 05:59:46;;;;;;;15.48;11.60;;;11.30;90.90;;;;;;5039476;28;20082;-61
2023/05/16 06:02:12;;;;;;;14.98;12.23;;;11.40;90.90;;;;;;5037950;28;20037;-62
2023/05/16 06:04:37;;;;;;;17.63;12.90;;;11.40;90.90;;;;;;5038296;28;20040;-61
2023/05/16 06:07:03;;;;;;;16.25;12.93;;;11.50;91.00;;;;;;5038051;28;20033;-62
2023/05/16 06:09:29;;;;;;;17.98;13.02;;;11.60;91.00;;;;;;5037962;28;20025;-61
2023/05/16 06:11:55;;;;;;;14.82;12.82;;;11.60;91.00;;;;;;5036656;28;20038;-62
2023/05/16 06:14:21;;;;;;;18.33;14.18;;;11.60;91.00;;;;;;5037797;28;20090;-61
2023/05/16 06:16:46;;;;;;;17.58;13.70;;;11.70;91.00;;;;;;5037025;28;20569;-62
2023/05/16 06:19:14;;;;;;;16.63;12.85;;;11.70;91.10;;;;;;5038273;28;20288;-61
2023/05/16 06:21:40;;;;;;;18.10;14.88;;;11.80;91.20;;;;;;5036177;28;20116;-61
2023/05/16 06:24:06;;;;;;;21.08;14.55;;;11.90;91.20;;;;;;5037883;28;20553;-61
2023/05/16 06:26:32;;;;;;;18.02;13.93;;;11.90;91.20;;;;;;5036834;28;20090;-62
2023/05/16 06:28:58;;;;;;;18.10;14.40;;;12.00;91.20;;;;;;5037215;28;20460;-63
2023/05/16 06:31:23;;;;;;;26.08;15.02;;;12.10;91.20;;;;;;5038236;28;20098;-62
2023/05/16 06:33:49;;;;;;;21.48;17.17;;;12.10;91.20;;;;;;5037469;28;20543;-62
2023/05/16 06:36:14;;;;;;;23.63;17.20;;;12.20;91.30;;;;;;5037452;28;20228;-62
2023/05/16 06:38:40;;;;;;;27.60;18.65;;;12.30;91.30;;;;;;5036945;28;20116;-63
2023/05/16 06:41:06;;;;;;;24.00;18.00;;;12.30;91.30;;;;;;5036755;28;20030;-62
2023/05/16 06:43:31;;;;;;;23.17;17.70;;;12.40;91.20;;;;;;5038246;28;20068;-61
2023/05/16 06:45:57;;;;;;;23.15;17.88;;;12.50;91.20;;;;;;5037078;28;20095;-61
2023/05/16 06:48:22;;;;;;;21.83;17.75;;;12.60;91.30;;;;;;5036321;28;20034;-62
2023/05/16 06:50:50;;;;;;;24.73;19.05;;;12.70;91.30;;;;;;5036455;28;20037;-62
2023/05/16 06:53:16;;;;;;;23.67;18.13;;;12.70;91.00;;;;;;5034467;28;20091;-61
2023/05/16 06:55:42;;;;;;;22.40;18.15;;;12.80;91.00;;;;;;5036694;28;20041;-61
2023/05/16 06:58:08;;;;;;;24.05;18.48;;;12.80;91.00;;;;;;5036242;28;20577;-62
2023/05/16 07:00:33;;;;;;;23.70;17.77;;;12.90;90.90;;;;;;5034304;28;20454;-61
2023/05/16 07:02:59;;;;;;;23.73;17.67;;;12.90;90.80;;;;;;5035753;28;20048;-61
2023/05/16 07:05:24;;;;;;;21.33;17.38;;;13.00;90.80;;;;;;5037068;28;20037;-61
2023/05/16 07:07:50;;;;;;;23.15;18.27;;;13.10;90.70;;;;;;5038643;28;20037;-61
2023/05/16 07:10:16;;;;;;;25.73;20.15;;;13.10;90.70;;;;;;5036332;28;20033;-61
2023/05/16 07:12:42;;;;;;;24.77;19.38;;;13.20;90.70;;;;;;5035067;28;20045;-62
2023/05/16 07:15:08;;;;;;;26.00;19.02;;;13.20;90.50;;;;;;5036861;28;20029;-62
2023/05/16 07:17:34;;;;;;;24.05;18.42;;;13.30;90.60;;;;;;5036125;28;20044;-62
2023/05/16 07:19:59;;;;;;;21.23;17.48;;;13.30;90.60;;;;;;5035207;28;20037;-62
2023/05/16 07:22:25;;;;;;;23.77;17.45;;;13.30;90.40;;;;;;5036459;28;20108;-61
2023/05/16 07:24:53;;;;;;;22.85;17.48;;;13.40;90.50;;;;;;5036099;28;20434;-61
2023/05/16 07:27:18;;;;;;;22.02;17.23;;;13.50;90.60;;;;;;5036857;28;20042;-61
2023/05/16 07:29:44;;;;;;;21.85;17.25;;;13.50;90.50;;;;;;5035991;28;20041;-62
2023/05/16 07:32:10;;;;;;;20.95;17.52;;;13.60;90.50;;;;;;5035565;28;20037;-62
2023/05/16 07:34:35;;;;;;;22.70;17.42;;;13.70;90.40;;;;;;5035479;28;20163;-62
2023/05/16 07:37:01;;;;;;;20.30;15.82;;;13.80;90.20;;;;;;5036806;28;20044;-61
2023/05/16 07:39:26;;;;;;;20.98;16.88;;;13.90;90.30;;;;;;5035863;28;20037;-62
2023/05/16 07:41:52;;;;;;;26.20;17.73;;;13.90;90.30;;;;;;5037290;28;20111;-61
2023/05/16 07:44:17;;;;;;;20.65;16.55;;;14.00;90.20;;;;;;5035617;28;20052;-61
2023/05/16 07:46:43;;;;;;;21.77;17.10;;;14.00;90.20;;;;;;5034964;28;20690;-62
2023/05/16 07:49:09;;;;;;;21.17;17.35;;;14.20;90.20;;;;;;5035364;28;20405;-62
2023/05/16 07:51:35;;;;;;;20.58;16.42;;;14.20;90.20;;;;;;5036570;28;20373;-62
2023/05/16 07:54:01;;;;;;;24.90;18.15;;;14.30;90.30;;;;;;5036134;28;20056;-62
2023/05/16 07:56:26;;;;;;;21.60;17.50;;;14.30;89.90;;;;;;5035966;28;20033;-63
2023/05/16 07:58:52;;;;;;;22.05;17.83;;;14.40;90.00;;;;;;5036771;28;20086;-62
2023/05/16 08:01:18;;;;;;;21.10;18.08;;;14.50;90.10;;;;;;5033144;28;20033;-61
2023/05/16 08:03:43;;;;;;;20.30;16.55;;;14.70;89.80;;;;;;5034431;28;20045;-62
2023/05/16 08:06:09;;;;;;;20.13;16.98;;;14.70;89.70;;;;;;5034307;28;20040;-60
2023/05/16 08:08:35;;;;;;;18.77;16.50;;;14.70;89.70;;;;;;5037078;28;20041;-63
2023/05/16 08:11:00;;;;;;;18.83;15.75;;;14.80;89.30;;;;;;5037324;28;20041;-63
2023/05/16 08:13:26;;;;;;;17.67;15.38;;;14.90;88.40;;;;;;5037132;28;20041;-62
2023/05/16 08:15:52;;;;;;;21.58;16.00;;;14.90;88.00;;;;;;5037673;28;20028;-62
2023/05/16 08:18:17;;;;;;;18.23;15.77;;;15.00;87.80;;;;;;5036955;28;20669;-62
2023/05/16 08:20:43;;;;;;;19.92;15.75;;;15.00;87.80;;;;;;5036041;28;20120;-60
2023/05/16 08:23:08;;;;;;;17.73;15.18;;;15.00;87.60;;;;;;5036060;28;20033;-63
2023/05/16 08:25:34;;;;;;;17.33;14.88;;;15.00;87.80;;;;;;5036432;28;20394;-61
2023/05/16 08:28:01;;;;;;;19.33;15.30;;;15.10;87.60;;;;;;5036176;28;20048;-61
2023/05/16 08:30:27;;;;;;;19.13;15.50;;;15.10;87.30;;;;;;5036222;28;20041;-62
2023/05/16 08:32:53;;;;;;;17.17;14.95;;;15.20;86.90;;;;;;5035249;28;20041;-63
2023/05/16 08:35:18;;;;;;;17.10;14.95;;;15.20;86.50;;;;;;5035952;28;20053;-61
2023/05/16 08:37:44;;;;;;;16.77;14.98;;;15.20;86.10;;;;;;5037036;28;20033;-62
2023/05/16 08:40:10;;;;;;;16.83;14.48;;;15.20;86.00;;;;;;5036966;28;20029;-63
2023/05/16 08:42:37;;;;;;;20.95;15.20;;;15.20;85.90;;;;;;5037114;28;20115;-62
2023/05/16 08:45:04;;;;;;;17.92;14.88;;;15.20;85.20;;;;;;5041001;28;20036;-61
2023/05/16 08:47:35;;;;;;;18.63;15.95;;;15.20;85.00;;;;;;5040457;28;20032;-62
2023/05/16 08:50:03;;;;;;;17.38;15.57;;;15.20;84.70;;;;;;5040122;28;20040;-62
2023/05/16 08:52:32;;;;;;;19.63;15.13;;;15.20;85.10;;;;;;5041617;28;20412;-63
2023/05/16 08:55:06;;;;;;;19.98;15.63;;;15.20;85.20;;;;;;5042968;28;20111;-61
2023/05/16 08:57:32;;;;;;;16.98;15.15;;;15.20;84.50;;;;;;5039514;28;20049;-61
2023/05/16 08:59:59;;;;;;;19.95;16.77;;;15.20;84.80;;;;;;5040435;28;20036;-62
2023/05/16 09:02:26;;;;;;;19.33;16.10;;;15.30;84.90;;;;;;5040466;28;20038;-62
2023/05/16 09:04:53;;;;;;;19.33;16.15;;;15.30;84.80;;;;;;5039528;28;20033;-63
2023/05/16 09:07:18;;;;;;;19.10;15.80;;;15.20;84.80;;;;;;5040567;28;20037;-62
2023/05/16 09:09:44;;;;;;;18.30;15.88;;;15.30;84.60;;;;;;5040821;28;20033;-61
2023/05/16 09:12:10;;;;;;;18.35;15.35;;;15.40;84.50;;;;;;5036747;28;20107;-63
2023/05/16 09:14:36;;;;;;;19.27;15.68;;;15.40;84.70;;;;;;5039655;28;20043;-63
2023/05/16 09:17:04;;;;;;;20.20;15.60;;;15.40;84.60;;;;;;5040827;28;20041;-61
2023/05/16 09:19:40;;;;;;;17.60;15.57;;;15.50;84.10;;;;;;5040213;28;20514;-63
2023/05/16 09:22:08;;;;;;;20.63;16.15;;;15.50;83.20;;;;;;5039404;28;20076;-64
2023/05/16 09:24:38;;;;;;;17.25;15.43;;;15.50;83.10;;;;;;5040794;28;20041;-63
2023/05/16 09:27:12;;;;;;;18.70;16.02;;;15.50;82.90;;;;;;5040599;28;20404;-63
2023/05/16 09:29:41;;;;;;;21.23;15.77;;;15.50;82.60;;;;;;5040334;28;20037;-64
2023/05/16 09:32:14;;;;;;;19.85;15.50;;;15.50;82.80;;;;;;5038937;28;20407;-62
2023/05/16 09:34:48;;;;;;;17.73;15.27;;;15.50;83.00;;;;;;5039586;28;20037;-63
2023/05/16 09:37:22;;;;;;;19.13;15.73;;;15.50;82.20;;;;;;5038783;28;20409;-63
2023/05/16 09:39:53;;;;;;;19.40;16.65;;;15.50;81.40;;;;;;5038181;28;20083;-63
2023/05/16 09:42:20;;;;;;;19.58;16.17;;;15.40;80.70;;;;;;5039804;28;20032;-63
2023/05/16 09:44:50;;;;;;;19.00;16.48;;;15.30;80.90;;;;;;5038522;28;20052;-64
2023/05/16 09:47:17;;;;;;;19.33;16.67;;;15.20;81.00;;;;;;5046554;28;20037;-61
2023/05/16 09:49:45;;;;;;;22.35;16.95;;;15.10;81.20;;;;;;5037459;28;20049;-64
2023/05/16 09:52:11;;;;;;;19.17;16.08;;;15.00;81.80;;;;;;5038430;28;20497;-63
2023/05/16 09:54:36;;;;;;;20.60;16.50;;;14.90;81.90;;;;;;5038865;28;20048;-63
2023/05/16 09:57:03;;;;;;;20.10;16.50;;;14.90;82.40;;;;;;5041332;28;20044;-63
2023/05/16 09:59:29;;;;;;;19.00;16.05;;;14.80;82.60;;;;;;5038572;28;20539;-63
2023/05/16 10:01:58;;;;;;;18.55;15.73;;;14.80;83.20;;;;;;5039662;28;20396;-63
2023/05/16 10:04:23;;;;;;;20.48;15.98;;;14.80;83.50;;;;;;5038137;28;20102;-63
2023/05/16 10:06:53;;;;;;;18.77;15.77;;;14.80;83.60;;;;;;5039606;28;20037;-63
2023/05/16 10:09:21;;;;;;;20.13;15.90;;;14.70;83.80;;;;;;5038304;28;20128;-63
2023/05/16 10:11:48;;;;;;;20.85;17.05;;;14.80;84.00;;;;;;5037669;28;20053;-63
2023/05/16 10:14:16;;;;;;;20.45;16.65;;;14.80;83.70;;;;;;5038609;28;20048;-63
2023/05/16 10:16:45;;;;;;;20.83;16.73;;;14.80;83.60;;;;;;5039719;28;20113;-63
2023/05/16 10:19:11;;;;;;;20.75;17.77;;;14.80;83.50;;;;;;5038714;28;20087;-63
2023/05/16 10:21:39;;;;;;;23.98;19.33;;;14.80;83.50;;;;;;5039961;28;20434;-63
2023/05/16 10:24:10;;;;;;;23.58;19.25;;;14.70;83.60;;;;;;5039027;28;20032;-63
2023/05/16 10:26:36;;;;;;;23.75;19.58;;;14.70;84.30;;;;;;5038136;28;20041;-63
2023/05/16 10:29:02;;;;;;;21.83;17.55;;;14.80;84.70;;;;;;5037035;28;20033;-63
2023/05/16 10:31:28;;;;;;;22.02;18.38;;;14.70;85.30;;;;;;5037242;28;20041;-62
2023/05/16 10:33:56;;;;;;;24.27;18.85;;;14.70;85.10;;;;;;5036973;28;20544;-63
2023/05/16 10:36:22;;;;;;;22.40;18.80;;;14.70;85.20;;;;;;5038696;28;20046;-63
2023/05/16 10:38:49;;;;;;;23.55;18.58;;;14.70;85.30;;;;;;5037467;28;20048;-63
2023/05/16 10:41:15;;;;;;;23.65;19.27;;;14.70;85.00;;;;;;5036971;28;20116;-64
2023/05/16 10:43:45;;;;;;;24.33;18.60;;;14.60;85.00;;;;;;5037268;28;20206;-63
2023/05/16 10:46:11;;;;;;;23.15;18.50;;;14.50;85.00;;;;;;5038032;28;20500;-63
2023/05/16 10:48:40;;;;;;;23.25;18.48;;;14.60;84.80;;;;;;5038788;28;20041;-62
2023/05/16 10:51:21;;;;;;;21.95;18.17;;;14.50;85.10;;;;;;5038241;28;20037;-62
2023/05/16 10:53:49;;;;;;;21.33;17.23;;;14.50;85.20;;;;;;5037747;28;20029;-63
2023/05/16 10:56:21;;;;;;;23.20;17.38;;;14.50;85.40;;;;;;5038428;28;20049;-63
2023/05/16 10:58:47;;;;;;;21.23;16.55;;;14.50;85.60;;;;;;5038738;28;20044;-63
2023/05/16 11:01:31;;;;;;;23.23;17.23;;;14.50;85.50;;;;;;5038583;28;20032;-62
2023/05/16 11:03:56;;;;;;;20.17;15.73;;;14.50;83.80;;;;;;5036412;28;20065;-62
2023/05/16 11:06:32;;;;;;;21.00;16.33;;;14.50;84.50;;;;;;5039500;28;20567;-63
2023/05/16 11:09:10;;;;;;;18.15;14.73;;;14.50;84.60;;;;;;5037906;28;20037;-62
2023/05/16 11:11:45;;;;;;;19.25;15.27;;;14.50;84.80;;;;;;5036260;28;20239;-63
2023/05/16 11:14:31;;;;;;;;;;;14.50;84.10;;;;;;5039034;28;20036;-63
2023/05/16 11:17:12;;;;;;;16.58;13.80;;;14.50;83.90;;;;;;5035479;28;19916;-62
2023/05/16 11:19:53;;;;;;;17.83;14.38;;;14.50;84.00;;;;;;5036698;28;20068;-62
2023/05/16 11:22:22;;;;;;;19.50;14.32;;;14.50;83.90;;;;;;5036841;28;20029;-62
2023/05/16 11:24:51;;;;;;;18.73;13.98;;;14.50;84.00;;;;;;5038088;28;20100;-63
2023/05/16 11:27:47;;;;;;;15.18;13.00;;;14.50;84.00;;;;;;5038061;28;20030;-63
2023/05/16 11:30:16;;;;;;;13.68;12.20;;;14.60;84.30;;;;;;5023751;28;20072;-63
2023/05/16 11:32:44;;;;;;;14.68;12.13;;;14.60;85.10;;;;;;5037482;28;20038;-63
2023/05/16 11:35:11;;;;;;;17.38;12.18;;;14.70;84.30;;;;;;5037261;28;20032;-63
2023/05/16 11:37:40;;;;;;;13.93;11.70;;;14.70;83.00;;;;;;5035771;28;20057;-62
2023/05/16 11:40:08;;;;;;;13.38;11.98;;;14.80;82.90;;;;;;5038621;28;20044;-63
2023/05/16 11:42:36;;;;;;;18.00;11.93;;;14.80;83.10;;;;;;5037247;28;20038;-62
2023/05/16 11:45:04;;;;;;;11.73;10.52;;;14.90;82.90;;;;;;5037302;28;20192;-64
2023/05/16 11:47:30;;;;;;;13.57;11.20;;;14.90;83.20;;;;;;5036884;28;20038;-63
2023/05/16 11:49:59;;;;;;;13.02;10.93;;;15.00;83.30;;;;;;5036128;28;20036;-63
2023/05/16 11:52:26;;;;;;;12.95;10.55;;;15.00;83.90;;;;;;5036745;28;20029;-62
2023/05/16 11:54:52;;;;;;;14.95;10.50;;;15.10;83.00;;;;;;5033013;28;20269;-63
2023/05/16 11:57:20;;;;;;;12.73;9.18;;;15.30;82.70;;;;;;5017999;28;20103;-62
2023/05/16 11:59:46;;;;;;;11.68;9.80;;;15.40;82.30;;;;;;5017498;28;20048;-63
2023/05/16 12:02:11;;;;;;;12.73;9.82;;;15.50;81.40;;;;;;5016500;28;20121;-63
2023/05/16 12:04:37;;;;;;;11.73;9.90;;;15.60;80.70;;;;;;5016283;28;20842;-62
2023/05/16 12:07:04;;;;;;;13.88;9.25;;;15.70;80.60;;;;;;5017697;28;20512;-63
2023/05/16 12:09:30;;;;;;;11.52;9.48;;;15.80;80.30;;;;;;5017727;28;20510;-63
2023/05/16 12:11:56;;;;;;;11.18;9.45;;;15.90;80.80;;;;;;5021062;28;20038;-62
2023/05/16 12:14:22;;;;;;;10.77;8.65;;;15.90;77.30;;;;;;5017767;28;20037;-62
2023/05/16 12:16:48;;;;;;;11.48;9.80;;;16.00;78.70;;;;;;5017211;28;20460;-62
2023/05/16 12:19:14;;;;;;;9.82;8.82;;;16.10;77.00;;;;;;5019043;28;20037;-63
2023/05/16 12:21:40;;;;;;;12.82;9.80;;;16.20;77.40;;;;;;5016892;28;20037;-63
2023/05/16 12:24:10;;;;;;;10.30;9.25;;;16.30;75.30;;;;;;5018943;28;20049;-62
2023/05/16 12:26:39;;;;;;;10.52;9.35;;;16.30;73.60;;;;;;5019194;28;20518;-62
2023/05/16 12:29:04;;;;;;;15.35;9.38;;;16.20;70.40;;;;;;5031360;28;20041;-62
2023/05/16 12:31:35;;;;;;;9.98;8.98;;;16.20;72.50;;;;;;5017696;28;20052;-63
2023/05/16 12:34:00;;;;;;;9.85;8.82;;;16.20;73.30;;;;;;5016439;28;20769;-63
2023/05/16 12:36:31;;;;;;;14.65;8.95;;;16.20;74.20;;;;;;5016457;28;20131;-62